поиск правила создать тему список тем настройки мобильная версия


Восстановить пароль

Зарегистрироваться
Известить модератора о нарушении правил в теме: Ми-8. Опять...
Триммер
Опытный боец
Холодно там уже
Крайняя фактическая Уренгоя
METAR USDU 211230Z 00000MPS P4000 BKN015 M11/M11 Q1036 RMK QFE775=
опубликовано: 21.10.2016 20:57
Дополнительно
Если нужно, оставьте пояснения, какие правила, по-Вашему, нарушены в сообщении:

Реклама на сайте Обратная связь/Связаться с администрацией
Рейтинг@Mail.ru